Dyess, Arkansas
Current Conditions -  °F | °C
As of 2:50 PM on Friday 28 Nov 2014 (Local Time) from KNQA Reporting Station
Few Clouds Few Clouds  
Wind Chill: 55°   Ceiling: Unl
Heat Index: 55°   Visibility: 10mi
Dew Point: 27°   Wind: 10mph
Humidity: 33%   Direction: 160°SSE
Pressure: 30.18"   Gusts: NA
Location:  35.59°N, 90.21°W
Report Text: KNQA 282050Z 16009KT 10SM FEW250 13/M03 A3018
Loading
Personal Weather Stations






























Interactive Weather Map New forecast layout! Learn more

10-Day Weather Forecast

Advertisements
Track Severe Weather on mobile